Latest Weather Observations for Learmonth

IDW60801

Issued at 12:32 pm WST Sunday 26 April 2015 (issued every 30 minutes, with the page automatically refreshed every 10 minutes)

About weather observations | Map of weather stations | Latest weather observations for WA | Other Formats
Station Details ID: 005007 Name: LEARMONTH AIRPORT Lat: -22.24 Lon: 114.10 Height: 5.0 m
Data from the previous 72 hours. | See also: Recent months at Learmonth
Date/Time
WST
Temp
°C
App
Temp
°C
Dew
Point
Rel
Hum
%
Delta-T
°C
Wind Press
QNH
hPa
Press
MSL
hPa
Rain
since 9 am
mm
Dir
 
Spd
km/h
Gust
km/h
Spd
kts
Gust
kts
26/12:30pm 26.8 25.4 13.4 43 7.9 ENE 13 17 7 9 1014.6 - 0.0
26/12:00pm 26.5 25.8 14.2 46 7.3 NE 11 17 6 9 1015.1 1015.0 0.0
26/11:30am 26.1 25.3 13.9 47 7.2 ENE 11 17 6 9 1015.4 - 0.0
26/11:00am 25.4 23.9 14.3 50 6.6 ENE 15 17 8 9 1015.8 - 0.0
26/10:30am 25.4 24.2 14.1 49 6.7 ENE 13 17 7 9 1016.1 - 0.0
26/10:00am 26.2 25.1 14.3 48 7.1 E 13 15 7 8 1016.2 - 0.0
26/09:30am 25.3 24.2 15.2 53 6.1 ESE 15 17 8 9 1016.2 - 0.0
26/09:00am 24.9 24.2 15.3 55 5.8 ESE 13 17 7 9 1016.1 1016.0 0.0
26/08:30am 24.2 24.0 14.8 55 5.6 SSE 9 19 5 10 1015.9 - 0.0
26/08:00am 22.2 23.0 17.3 74 3.0 SSW 9 9 5 5 1015.7 - 0.0
26/07:30am 21.6 22.2 16.8 74 2.9 SW 9 13 5 7 1015.5 - 0.0
26/07:00am 21.3 21.8 16.5 74 2.9 WSW 9 13 5 7 1015.1 - 0.0
26/06:30am 23.4 23.0 15.2 60 4.9 E 11 17 6 9 1014.8 - 0.0
26/06:00am 23.7 22.6 15.4 59 5.0 E 15 19 8 10 1014.4 1014.3 0.0
26/05:30am 24.0 22.9 15.3 58 5.2 ENE 15 20 8 11 1014.1 - 0.0
26/05:00am 24.1 23.1 15.5 58 5.2 NE 15 19 8 10 1013.8 - 0.0
26/04:30am 24.3 23.0 15.7 58 5.2 NE 17 20 9 11 1013.7 - 0.0
26/04:00am 23.8 23.9 17.5 68 3.9 ENE 13 17 7 9 1013.8 - 0.0
26/03:30am 23.6 23.0 17.5 68 3.8 ENE 17 20 9 11 1013.8 - 0.0
26/03:00am 21.1 22.9 18.7 86 1.5 SSE 7 9 4 5 1014.0 1013.9 0.0
26/02:30am 22.0 22.6 18.7 81 2.1 S 13 15 7 8 1014.1 - 0.0
26/02:00am 21.6 23.8 19.7 89 1.2 SSW 7 11 4 6 1014.2 - 0.0
26/01:30am 22.1 24.2 19.3 84 1.8 S 7 9 4 5 1014.3 - 0.0
26/01:00am 22.3 24.3 19.1 82 2.0 W 7 7 4 4 1014.4 - 0.0
26/12:30am 22.1 24.3 19.1 83 1.9 WSW 6 7 3 4 1014.5 - 0.0
26/12:00am 22.0 23.5 19.0 83 1.9 SSW 9 11 5 6 1014.6 1014.5 0.0
 
Date/Time
WST
Temp
°C
App
Temp
°C
Dew
Point
Rel
Hum
%
Delta-T
°C
Wind Press
QNH
hPa
Press
MSL
hPa
Rain
since 9 am
mm
Dir
 
Spd
km/h
Gust
km/h
Spd
kts
Gust
kts
25/11:30pm 23.3 24.4 18.9 76 2.8 ESE 11 13 6 7 1014.7 - 0.0
25/11:00pm 22.7 24.6 19.7 83 1.9 ESE 9 11 5 6 1015.0 - 0.0
25/10:30pm 22.4 24.5 20.1 87 1.5 S 9 9 5 5 1015.1 - 0.0
25/10:00pm 23.6 25.8 20.4 82 2.1 SE 9 13 5 7 1015.2 - 0.0
25/09:30pm 23.7 24.8 19.6 78 2.6 ESE 13 15 7 8 1014.9 - 0.0
25/09:00pm 23.7 25.6 20.6 83 2.0 SE 11 13 6 7 1014.8 1014.7 0.0
25/08:30pm 23.9 26.0 20.2 80 2.4 SE 9 11 5 6 1014.6 - 0.0
25/08:00pm 24.4 25.8 18.6 70 3.7 N 9 13 5 7 1014.0 - 0.0
25/07:30pm 24.6 26.3 19.3 72 3.4 N 9 11 5 6 1013.6 - 0.0
25/07:00pm 25.0 26.3 19.2 70 3.7 N 11 13 6 7 1013.4 - 0.0
25/06:30pm 25.6 26.3 18.0 63 4.8 N 11 13 6 7 1013.3 - 0.0
25/06:00pm 26.0 25.9 17.0 57 5.6 N 13 17 7 9 1012.9 1012.8 0.0
25/05:30pm 26.1 25.8 16.4 55 6.0 N 13 17 7 9 1012.7 - 0.0
25/05:00pm 26.6 24.6 15.0 49 7.0 N 19 24 10 13 1012.5 - 0.0
25/04:30pm 27.6 25.8 14.5 44 7.9 N 17 20 9 11 1012.4 - 0.0
25/04:00pm 27.9 25.6 14.2 43 8.2 N 19 22 10 12 1012.4 - 0.0
25/03:30pm 27.9 26.2 14.6 44 8.0 N 17 22 9 12 1012.3 - 0.0
25/03:00pm 27.7 25.4 14.6 44 7.9 N 20 26 11 14 1012.4 1012.3 0.0
25/02:30pm 28.4 26.5 15.3 45 8.0 N 19 24 10 13 1012.3 - 0.0
25/02:00pm 28.3 26.1 14.8 43 8.2 N 20 22 11 12 1012.5 - 0.0
25/01:30pm 28.9 26.6 13.0 37 9.4 NNE 17 20 9 11 1012.6 - 0.0
25/01:00pm 28.8 26.7 13.7 39 9.0 NE 17 22 9 12 1012.8 - 0.0
25/12:30pm 28.7 27.4 14.9 43 8.4 NE 15 20 8 11 1013.1 - 0.0
25/12:00pm 28.1 26.4 14.7 44 8.1 NE 17 22 9 12 1013.5 1013.4 0.0
25/11:30am 28.0 25.6 13.7 41 8.5 NE 19 26 10 14 1013.9 - 0.0
25/11:00am 27.5 25.6 15.3 47 7.4 ENE 19 22 10 12 1014.5 - 0.0
25/10:30am 26.3 24.0 14.6 48 7.0 E 20 28 11 15 1014.6 - 0.0
25/10:00am 26.3 23.0 15.0 49 6.8 E 26 32 14 17 1014.8 - 0.0
25/09:30am 26.2 23.6 15.9 53 6.3 E 24 30 13 16 1014.8 - 0.0
25/09:00am 25.9 23.2 15.5 52 6.3 E 24 30 13 16 1014.7 1014.6 0.0
25/08:30am 24.7 23.4 17.3 63 4.6 E 20 26 11 14 1014.7 - 0.0
25/08:00am 23.6 25.7 18.9 75 3.0 SE 6 9 3 5 1014.4 - 0.0
25/07:30am 22.6 25.7 18.6 78 2.5 CALM 0 0 0 0 1014.1 - 0.0
25/07:00am 22.1 25.1 18.4 79 2.3 CALM 0 0 0 0 1013.4 - 0.0
25/06:30am 22.4 25.3 18.1 76 2.7 CALM 0 0 0 0 1013.1 - 0.0
25/06:00am 22.6 25.6 18.5 77 2.6 CALM 0 6 0 3 1013.0 1012.9 0.0
25/05:30am 23.7 24.3 16.9 65 4.2 E 9 13 5 7 1012.9 - 0.0
25/05:00am 24.0 24.1 16.5 63 4.6 E 11 13 6 7 1012.8 - 0.0
25/04:30am 24.4 23.5 15.8 58 5.2 NE 15 20 8 11 1012.7 - 0.0
25/04:00am 24.8 23.4 15.5 56 5.6 NE 17 24 9 13 1012.8 - 0.0
25/03:30am 24.8 23.4 15.5 56 5.6 NE 17 20 9 11 1012.9 - 0.0
25/03:00am 24.7 24.1 16.6 60 5.0 NNE 15 22 8 12 1013.0 1012.9 0.0
25/02:30am 24.0 23.5 17.8 68 3.9 NE 17 22 9 12 1013.2 - 0.0
25/02:00am 21.9 23.9 18.7 82 2.0 SW 6 7 3 4 1013.3 - 0.0
25/01:30am 21.6 23.9 18.6 83 1.9 SSW 4 6 2 3 1013.4 - 0.0
25/01:00am 21.5 24.6 18.6 83 1.8 CALM 0 6 0 3 1013.4 - 0.0
25/12:30am 21.1 23.2 18.9 87 1.4 SSW 6 9 3 5 1013.4 - 0.0
25/12:00am 20.8 22.5 18.6 87 1.4 SSW 7 9 4 5 1013.3 1013.2 0.0
 
Date/Time
WST
Temp
°C
App
Temp
°C
Dew
Point
Rel
Hum
%
Delta-T
°C
Wind Press
QNH
hPa
Press
MSL
hPa
Rain
since 9 am
mm
Dir
 
Spd
km/h
Gust
km/h
Spd
kts
Gust
kts
24/11:30pm 20.5 20.7 18.6 89 1.2 SSW 15 17 8 9 1013.4 - 0.0
24/11:00pm 20.4 21.7 18.5 89 1.2 SSW 9 11 5 6 1013.4 - 0.0
24/10:30pm 20.8 22.9 18.9 89 1.2 WSW 6 9 3 5 1013.5 - 0.0
24/10:00pm 21.7 25.0 19.2 86 1.6 CALM 0 0 0 0 1013.6 - 0.0
24/09:30pm 22.5 25.8 19.0 80 2.2 CALM 0 0 0 0 1013.6 - 0.0
24/09:00pm 22.6 25.8 18.8 79 2.4 CALM 0 0 0 0 1013.7 1013.6 0.0
24/08:30pm 22.9 26.5 19.8 83 2.0 CALM 0 0 0 0 1013.5 - 0.0
24/08:00pm 23.6 27.0 19.4 77 2.7 CALM 0 0 0 0 1013.2 - 0.0
24/07:30pm 24.3 27.6 19.0 72 3.4 CALM 0 0 0 0 1012.9 - 0.0
24/07:00pm 24.2 27.9 19.9 77 2.8 CALM 0 0 0 0 1012.6 - 0.0
24/06:30pm 24.4 27.1 17.7 66 4.2 CALM 0 0 0 0 1012.3 - 0.0
24/06:00pm 24.4 26.0 18.2 68 3.9 N 7 9 4 5 1012.2 1012.1 0.0
24/05:30pm 25.3 25.3 17.1 60 5.1 NNE 13 17 7 9 1012.1 - 0.0
24/05:00pm 26.3 26.3 16.2 53 6.2 NNE 11 13 6 7 1012.0 - 0.0
24/04:30pm 25.9 26.2 16.1 54 6.0 NNE 9 13 5 7 1011.9 - 0.0
24/04:00pm 26.9 26.4 15.8 50 6.8 NE 13 15 7 8 1012.1 - 0.0
24/03:30pm 27.5 27.6 15.4 47 7.4 NE 9 15 5 8 1012.2 - 0.0
24/03:00pm 27.1 26.6 15.0 47 7.3 NNE 11 17 6 9 1012.3 1012.2 0.0
24/02:30pm 27.1 26.0 14.2 45 7.7 ENE 13 17 7 9 1012.3 - 0.0
24/02:00pm 27.0 26.2 13.9 44 7.8 ENE 11 17 6 9 1012.5 - 0.0
24/01:30pm 26.8 25.9 14.9 48 7.2 ENE 13 17 7 9 1012.9 - 0.0
24/01:00pm 26.5 25.7 15.1 49 6.9 E 13 20 7 11 1013.2 - 0.0
24/12:30pm 25.9 25.3 15.7 53 6.2 E 13 19 7 10 1013.5 - 0.0
24/12:00pm 25.4 24.4 14.7 51 6.4 E 13 19 7 10 1013.9 1013.8 0.0
24/11:30am 25.4 23.8 14.9 52 6.3 E 17 22 9 12 1014.3 - 0.0
24/11:00am 24.7 23.2 15.2 55 5.7 ESE 17 22 9 12 1014.7 - 0.0
24/10:30am 24.2 22.7 15.4 58 5.3 ESE 17 22 9 12 1015.0 - 0.0
24/10:00am 23.4 22.0 14.6 57 5.2 ESE 15 22 8 12 1015.4 - 0.0
24/09:30am 23.0 21.3 14.7 59 4.9 E 17 20 9 11 1015.5 - 0.0
24/09:00am 23.2 22.3 14.8 59 5.0 ESE 13 19 7 10 1015.6 1015.5 0.0
24/08:30am 22.8 21.8 14.5 59 4.9 ESE 13 19 7 10 1015.6 - 0.0
24/08:00am 22.5 21.5 14.5 60 4.7 ESE 13 17 7 9 1015.6 - 0.0
24/07:30am 21.5 21.6 15.4 68 3.6 SE 9 13 5 7 1015.3 - 0.0
24/07:00am 20.5 19.5 14.7 69 3.4 ESE 13 17 7 9 1014.8 - 0.0
24/06:30am 20.3 19.5 15.0 71 3.1 ESE 13 19 7 10 1014.4 - 0.0
24/06:00am 21.0 19.2 14.5 66 3.8 ESE 17 22 9 12 1014.0 1013.9 0.0
24/05:30am 21.4 19.3 14.8 66 3.9 ESE 19 24 10 13 1013.5 - 0.0
24/05:00am 21.7 19.6 15.1 66 3.9 ESE 20 26 11 14 1013.3 - 0.0
24/04:30am 22.1 19.5 14.8 63 4.3 E 22 32 12 17 1013.3 - 0.0
24/04:00am 22.3 18.4 14.3 60 4.7 ESE 28 35 15 19 1013.0 - 0.0
24/03:30am 22.6 18.0 13.4 56 5.3 E 30 39 16 21 1013.1 - 0.0
24/03:00am 22.6 18.6 14.2 59 4.9 ESE 28 35 15 19 1013.0 1012.9 0.0
24/02:30am 23.0 19.1 14.3 58 5.1 ESE 28 35 15 19 1013.1 - 0.0
24/02:00am 23.2 19.3 14.4 57 5.2 ESE 28 39 15 21 1013.2 - 0.0
24/01:55am 23.0 19.2 14.7 59 4.9 ESE 28 39 15 21 1013.3 - 0.0
24/01:30am 20.1 21.1 17.7 86 1.5 SW 9 13 5 7 1013.4 - 0.0
24/01:00am 18.8 19.5 17.1 90 1.0 SSW 9 11 5 6 1013.4 - 0.0
24/12:30am 19.1 19.4 17.1 88 1.2 WSW 11 13 6 7 1013.5 - 0.0
24/12:00am 19.1 19.3 16.8 86 1.4 SW 11 13 6 7 1013.3 1013.2 0.0
 
Date/Time
WST
Temp
°C
App
Temp
°C
Dew
Point
Rel
Hum
%
Delta-T
°C
Wind Press
QNH
hPa
Press
MSL
hPa
Rain
since 9 am
mm
Dir
 
Spd
km/h
Gust
km/h
Spd
kts
Gust
kts
23/11:30pm 18.5 19.2 17.0 91 0.9 SW 9 11 5 6 1013.4 - 0.0
23/11:00pm 18.5 18.4 17.0 91 0.9 SSW 13 13 7 7 1013.3 - 0.0
23/10:30pm 19.0 20.7 17.2 89 1.1 SW 4 11 2 6 1013.3 - 0.0
23/10:00pm 20.2 21.3 17.1 82 1.9 W 7 9 4 5 1013.3 - 0.0
23/09:30pm 20.3 21.1 17.2 82 1.9 W 9 11 5 6 1013.2 - 0.0
23/09:00pm 20.6 21.4 17.2 81 2.1 W 9 11 5 6 1013.0 1012.9 0.0
23/08:30pm 20.7 22.0 17.6 82 1.9 W 7 11 4 6 1012.7 - 0.0
23/08:00pm 22.4 23.7 17.0 71 3.3 N 6 7 3 4 1012.7 - 0.0
23/07:30pm 21.8 22.1 16.9 73 3.0 N 11 13 6 7 1012.5 - 0.0
23/07:00pm 22.1 22.6 16.5 70 3.4 NNW 9 11 5 6 1012.2 - 0.0
23/06:30pm 22.4 22.6 16.7 70 3.5 N 11 13 6 7 1012.0 - 0.0
23/06:00pm 26.0 27.9 15.8 53 6.2 CALM 0 0 0 0 1011.8 1011.7 0.0
23/05:30pm 25.9 26.9 14.3 48 6.9 SSE 2 9 1 5 1011.6 - 0.0
23/05:00pm 26.0 26.9 14.0 47 7.1 SE 2 9 1 5 1011.5 - 0.0
23/04:30pm 26.2 26.4 14.7 49 6.9 ENE 7 11 4 6 1011.6 - 0.0
23/04:00pm 25.5 24.9 13.4 47 7.1 E 9 13 5 7 1011.6 - 0.0
23/03:30pm 26.1 24.7 13.3 45 7.5 E 13 17 7 9 1011.9 - 0.0
23/03:00pm 25.8 24.3 14.2 48 6.9 E 15 19 8 10 1012.1 1012.0 0.0
23/02:30pm 25.2 23.9 14.8 52 6.2 ESE 15 19 8 10 1012.1 - 0.0
23/02:00pm 25.4 24.9 13.9 49 6.8 SE 9 13 5 7 1012.2 - 0.0
23/01:30pm 24.9 24.2 14.3 51 6.3 E 11 17 6 9 1012.5 - 0.0
23/01:00pm 24.1 23.1 13.5 51 6.2 ESE 11 17 6 9 1012.8 - 0.0

Other Formats:

Comma delimited format used in spreadsheet applications
http://www.bom.gov.au/fwo/IDW60801/IDW60801.94302.axf

JavaScript Object Notation format (JSON) in row-major order
http://www.bom.gov.au/fwo/IDW60801/IDW60801.94302.json